createdAt,value
2019-05-17T00:02:13.003Z,22.30
2019-05-17T00:04:47.247Z,22.10
2019-05-17T00:07:20.501Z,21.70
2019-05-17T00:09:53.440Z,21.60
2019-05-17T00:12:27.249Z,21.70
2019-05-17T00:15:01.452Z,21.90
2019-05-17T00:17:37.836Z,21.90
2019-05-17T00:20:09.996Z,22.00
2019-05-17T00:22:44.276Z,22.20
2019-05-17T00:25:17.969Z,22.20
2019-05-17T00:27:51.171Z,22.10
2019-05-17T00:30:26.521Z,22.30
2019-05-17T00:33:00.626Z,22.40
2019-05-17T00:35:37.349Z,22.60
2019-05-17T00:38:09.675Z,22.40
2019-05-17T00:40:43.918Z,22.20
2019-05-17T00:43:17.589Z,22.20
2019-05-17T00:45:51.505Z,21.90
2019-05-17T00:48:26.453Z,21.50
2019-05-17T00:51:02.303Z,21.70
2019-05-17T00:53:36.339Z,21.80
2019-05-17T00:56:10.170Z,21.50
2019-05-17T00:58:44.218Z,21.60
2019-05-17T01:01:17.947Z,21.80
2019-05-17T01:03:51.466Z,22.00
2019-05-17T01:06:27.370Z,22.10
2019-05-17T01:09:03.709Z,22.10
2019-05-17T01:11:36.562Z,22.10
2019-05-17T01:14:10.046Z,22.20
2019-05-17T01:16:43.791Z,22.10
2019-05-17T01:19:17.164Z,22.00
2019-05-17T01:21:50.791Z,22.00
2019-05-17T01:24:24.066Z,22.10
2019-05-17T01:26:57.902Z,22.10
2019-05-17T01:29:31.481Z,22.20
2019-05-17T01:32:06.801Z,22.20
2019-05-17T01:34:43.412Z,22.10
2019-05-17T01:37:17.240Z,22.20
2019-05-17T01:39:50.553Z,22.10
2019-05-17T01:42:23.846Z,22.00
2019-05-17T01:44:57.102Z,21.90
2019-05-17T01:47:30.956Z,21.90
2019-05-17T01:50:06.633Z,21.80
2019-05-17T01:52:40.125Z,21.80
2019-05-17T01:55:13.937Z,22.10
2019-05-17T01:57:47.810Z,22.10
2019-05-17T02:00:23.125Z,22.10
2019-05-17T02:02:57.834Z,22.30
2019-05-17T02:05:31.210Z,22.30
2019-05-17T02:08:06.619Z,22.40
2019-05-17T02:10:39.461Z,22.50
2019-05-17T02:13:13.096Z,22.70
2019-05-17T02:15:47.100Z,22.80
2019-05-17T02:18:20.952Z,22.80
2019-05-17T02:20:56.881Z,22.90
2019-05-17T02:23:30.454Z,22.60
2019-05-17T02:26:06.449Z,22.60
2019-05-17T02:28:41.444Z,22.50
2019-05-17T02:31:14.513Z,22.50
2019-05-17T02:33:47.921Z,22.50
2019-05-17T02:36:22.831Z,22.50
2019-05-17T02:38:56.383Z,22.50
2019-05-17T02:41:33.089Z,22.30
2019-05-17T02:44:05.113Z,22.10
2019-05-17T02:46:38.943Z,22.20
2019-05-17T02:49:13.728Z,22.40
2019-05-17T02:51:47.890Z,22.40
2019-05-17T02:54:23.571Z,22.50
2019-05-17T02:56:56.982Z,22.50
2019-05-17T02:59:33.138Z,22.50
2019-05-17T03:02:06.520Z,22.50
2019-05-17T03:04:43.050Z,22.50
2019-05-17T03:07:15.634Z,22.40
2019-05-17T03:09:48.511Z,22.30
2019-05-17T03:12:23.622Z,22.30
2019-05-17T03:14:58.182Z,22.20
2019-05-17T03:17:33.801Z,22.40
2019-05-17T03:20:06.033Z,22.50
2019-05-17T03:22:39.258Z,22.70
2019-05-17T03:25:13.656Z,22.70
2019-05-17T03:27:46.233Z,22.80
2019-05-17T03:30:20.770Z,22.80
2019-05-17T03:32:56.406Z,22.80
2019-05-17T03:35:36.669Z,22.90
2019-05-17T03:38:05.770Z,23.10
2019-05-17T03:41:03.274Z,23.20
2019-05-17T03:43:14.292Z,23.00
2019-05-17T03:45:47.178Z,23.00
2019-05-17T03:48:22.144Z,22.90
2019-05-17T03:50:55.790Z,23.00
2019-05-17T03:53:29.069Z,23.00
2019-05-17T03:56:03.382Z,22.90
2019-05-17T03:58:36.815Z,22.60
2019-05-17T04:01:13.652Z,22.50
2019-05-17T04:03:44.646Z,22.60
2019-05-17T04:06:18.071Z,22.60
2019-05-17T04:08:52.741Z,22.70
2019-05-17T04:11:31.852Z,22.80
2019-05-17T04:14:02.905Z,22.60
2019-05-17T04:16:35.683Z,22.30
2019-05-17T04:19:08.933Z,22.50
2019-05-17T04:21:43.099Z,22.40
2019-05-17T04:24:16.924Z,22.40
2019-05-17T04:26:52.313Z,22.40
2019-05-17T04:29:26.116Z,21.80
2019-05-17T04:31:59.236Z,21.80
2019-05-17T04:34:33.869Z,22.00
2019-05-17T04:37:06.843Z,22.30
2019-05-17T04:39:42.918Z,22.50
2019-05-17T04:42:13.879Z,22.70
2019-05-17T04:44:46.474Z,22.90
2019-05-17T04:47:22.684Z,23.00
2019-05-17T04:49:54.483Z,23.10
2019-05-17T04:52:26.426Z,23.00
2019-05-17T04:54:58.899Z,23.00
2019-05-17T04:57:32.528Z,23.00
2019-05-17T05:00:06.476Z,23.00
2019-05-17T05:02:39.314Z,23.00
2019-05-17T05:05:14.528Z,23.00
2019-05-17T05:07:47.635Z,23.10
2019-05-17T05:10:22.520Z,23.10
2019-05-17T05:12:55.287Z,23.00
2019-05-17T05:15:46.444Z,22.80
2019-05-17T05:18:22.119Z,22.80
2019-05-17T05:20:54.096Z,22.70
2019-05-17T05:23:26.462Z,22.50
2019-05-17T05:25:59.421Z,22.50
2019-05-17T05:28:32.683Z,22.70
2019-05-17T05:31:05.122Z,22.80
2019-05-17T05:33:38.591Z,23.00
2019-05-17T05:36:11.468Z,23.10
2019-05-17T05:38:44.309Z,23.20
2019-05-17T05:41:17.276Z,23.10
2019-05-17T05:43:49.706Z,23.10
2019-05-17T05:46:22.464Z,23.20
2019-05-17T05:48:55.125Z,23.10
2019-05-17T05:51:28.044Z,23.10
2019-05-17T05:54:01.671Z,23.20
2019-05-17T05:56:35.921Z,23.40
2019-05-17T05:59:12.117Z,23.10
2019-05-17T06:01:45.657Z,23.20
2019-05-17T06:04:18.957Z,23.40
2019-05-17T06:06:52.185Z,23.50
2019-05-17T06:09:26.241Z,23.30
2019-05-17T06:11:59.537Z,23.30
2019-05-17T06:14:32.802Z,23.40
2019-05-17T06:17:05.234Z,23.40
2019-05-17T06:19:37.746Z,23.00
2019-05-17T06:22:11.983Z,23.10
2019-05-17T06:24:44.005Z,23.20
2019-05-17T06:27:16.497Z,23.30
2019-05-17T06:29:51.338Z,23.10
2019-05-17T06:32:23.970Z,23.10
2019-05-17T06:34:57.879Z,23.00
2019-05-17T06:37:31.818Z,23.10
2019-05-17T06:40:05.799Z,23.40
2019-05-17T06:42:42.512Z,23.40
2019-05-17T06:45:15.153Z,23.10
2019-05-17T06:47:48.622Z,23.30
2019-05-17T06:50:23.635Z,23.20
2019-05-17T06:52:57.474Z,23.30
2019-05-17T06:55:31.713Z,23.30
2019-05-17T06:58:04.982Z,23.30
2019-05-17T07:00:40.448Z,23.50
2019-05-17T07:03:13.895Z,23.50
2019-05-17T07:05:50.191Z,23.30
2019-05-17T07:08:23.923Z,22.90
2019-05-17T07:10:59.740Z,22.70
2019-05-17T07:13:33.103Z,23.10
2019-05-17T07:16:05.922Z,23.30
2019-05-17T07:18:39.842Z,23.50
2019-05-17T07:21:13.059Z,23.70
2019-05-17T07:23:46.800Z,23.90
2019-05-17T07:26:20.166Z,24.00
2019-05-17T07:28:52.966Z,24.10
2019-05-17T07:31:25.560Z,24.20
2019-05-17T07:33:59.707Z,23.90
2019-05-17T07:36:31.270Z,23.80
2019-05-17T07:39:05.191Z,24.00
2019-05-17T07:41:39.917Z,24.20
2019-05-17T07:44:12.950Z,24.00
2019-05-17T07:46:44.870Z,24.20
2019-05-17T07:49:20.022Z,24.20
2019-05-17T07:51:52.437Z,24.10
2019-05-17T07:54:24.939Z,24.30
2019-05-17T07:57:00.095Z,24.40
2019-05-17T07:59:34.519Z,24.30
2019-05-17T08:02:07.449Z,24.60
2019-05-17T08:04:41.221Z,24.40
2019-05-17T08:07:14.995Z,24.50
2019-05-17T08:09:50.681Z,24.50
2019-05-17T08:12:23.409Z,24.50
2019-05-17T08:14:56.326Z,24.20
2019-05-17T08:17:30.480Z,24.20
2019-05-17T08:20:03.213Z,24.40
2019-05-17T08:22:39.560Z,24.50
2019-05-17T08:25:11.741Z,24.70
2019-05-17T08:27:45.031Z,24.40
2019-05-17T08:30:20.622Z,24.60
2019-05-17T08:32:54.503Z,24.20
2019-05-17T08:35:30.318Z,24.50
2019-05-17T08:38:03.190Z,24.60
2019-05-17T08:40:36.176Z,24.20
2019-05-17T08:43:09.969Z,24.30
2019-05-17T08:45:44.240Z,23.80
2019-05-17T08:48:17.235Z,23.90
2019-05-17T08:50:49.784Z,24.20
2019-05-17T08:53:22.274Z,24.50
2019-05-17T08:55:55.779Z,24.60
2019-05-17T08:58:29.721Z,24.70
2019-05-17T09:01:02.393Z,25.00
2019-05-17T09:03:34.982Z,25.00
2019-05-17T09:06:07.306Z,25.10
2019-05-17T09:08:40.524Z,25.00
2019-05-17T09:11:14.115Z,25.00
2019-05-17T09:13:57.310Z,24.90
2019-05-17T09:16:21.116Z,24.90
2019-05-17T09:18:54.403Z,25.20
2019-05-17T09:21:26.948Z,25.50
2019-05-17T09:24:00.315Z,25.50
2019-05-17T09:26:33.257Z,25.30
2019-05-17T09:29:07.078Z,24.90
2019-05-17T09:31:40.442Z,25.00
2019-05-17T09:34:12.637Z,24.90
2019-05-17T09:36:44.565Z,25.00
2019-05-17T09:39:17.182Z,24.70
2019-05-17T09:41:50.334Z,24.70
2019-05-17T09:44:24.206Z,24.70
2019-05-17T09:46:59.355Z,24.80
2019-05-17T09:49:32.521Z,24.70
2019-05-17T09:52:06.722Z,25.00
2019-05-17T09:54:45.096Z,25.30
2019-05-17T09:57:15.885Z,25.30
2019-05-17T09:59:49.758Z,25.30
2019-05-17T10:02:23.119Z,25.30
2019-05-17T10:04:59.659Z,25.50
2019-05-17T10:07:32.728Z,25.70
2019-05-17T10:10:05.915Z,25.90
2019-05-17T10:12:40.333Z,26.20
2019-05-17T10:15:15.075Z,25.80
2019-05-17T10:17:49.187Z,25.80
2019-05-17T10:20:22.565Z,25.80
2019-05-17T10:22:55.803Z,26.00
2019-05-17T10:25:29.502Z,26.10
2019-05-17T10:28:03.825Z,26.20
2019-05-17T10:30:39.541Z,26.10
2019-05-17T10:33:11.548Z,25.70
2019-05-17T10:35:44.606Z,25.40
2019-05-17T10:38:19.509Z,25.30
2019-05-17T10:40:53.481Z,25.40
2019-05-17T10:43:29.717Z,25.60
2019-05-17T10:46:03.066Z,25.70
2019-05-17T10:48:36.393Z,25.70
2019-05-17T10:51:13.282Z,25.80
2019-05-17T10:53:45.677Z,25.90
2019-05-17T10:56:23.215Z,26.00
2019-05-17T10:58:55.382Z,25.80
2019-05-17T11:01:30.585Z,26.00
2019-05-17T11:04:04.183Z,26.10
2019-05-17T11:06:39.374Z,26.00
2019-05-17T11:09:11.529Z,26.00
2019-05-17T11:11:44.892Z,26.10
2019-05-17T11:14:17.328Z,26.30
2019-05-17T11:16:51.242Z,26.30
2019-05-17T11:19:24.587Z,26.60
2019-05-17T11:21:57.824Z,26.70
2019-05-17T11:24:31.765Z,26.80
2019-05-17T11:27:05.605Z,27.10
2019-05-17T11:29:38.092Z,27.10
2019-05-17T11:32:11.822Z,27.00
2019-05-17T11:34:45.118Z,27.30
2019-05-17T11:37:18.931Z,27.20
2019-05-17T11:39:52.692Z,27.30
2019-05-17T11:42:26.023Z,27.50
2019-05-17T11:45:00.277Z,27.30
2019-05-17T11:47:34.015Z,27.20
2019-05-17T11:50:07.721Z,27.30
2019-05-17T11:52:41.490Z,27.20
2019-05-17T11:55:15.299Z,27.30
2019-05-17T11:57:49.150Z,27.00
2019-05-17T12:00:24.138Z,27.30
2019-05-17T12:02:57.793Z,27.30
2019-05-17T12:05:29.822Z,27.70
2019-05-17T12:08:03.286Z,27.80
2019-05-17T12:10:37.215Z,28.00
2019-05-17T12:13:10.915Z,28.20
2019-05-17T12:15:45.619Z,28.80
2019-05-17T12:18:18.933Z,29.10
2019-05-17T12:20:51.762Z,29.00
2019-05-17T12:23:24.709Z,29.30
2019-05-17T12:25:58.822Z,29.20
2019-05-17T12:28:32.420Z,29.20
2019-05-17T12:31:06.246Z,29.40
2019-05-17T12:33:40.005Z,29.10
2019-05-17T12:36:14.145Z,28.70
2019-05-17T12:38:46.608Z,28.70
2019-05-17T12:41:19.001Z,28.60
2019-05-17T12:43:51.380Z,28.80
2019-05-17T12:46:23.777Z,28.70
2019-05-17T12:48:56.363Z,28.80
2019-05-17T12:51:32.764Z,29.10
2019-05-17T12:54:04.544Z,29.40
2019-05-17T12:56:37.537Z,29.60
2019-05-17T12:59:10.515Z,29.70
2019-05-17T13:01:43.415Z,29.50
2019-05-17T13:04:16.677Z,29.70
2019-05-17T13:06:49.198Z,30.10
2019-05-17T13:09:22.671Z,30.50
2019-05-17T13:11:55.069Z,30.80
2019-05-17T13:14:27.149Z,30.90
2019-05-17T13:16:59.634Z,31.00
2019-05-17T13:19:31.575Z,31.00
2019-05-17T13:22:04.509Z,31.00
2019-05-17T13:24:37.413Z,31.20
2019-05-17T13:27:09.842Z,31.50
2019-05-17T13:29:42.855Z,31.70
2019-05-17T13:32:16.227Z,31.90
2019-05-17T13:34:49.938Z,31.80
2019-05-17T13:37:22.883Z,31.80
2019-05-17T13:39:55.321Z,31.80
2019-05-17T13:42:27.649Z,32.10
2019-05-17T13:45:00.695Z,32.20
2019-05-17T13:47:33.606Z,31.90
2019-05-17T13:50:06.889Z,31.90
2019-05-17T13:52:40.305Z,32.00
2019-05-17T13:55:14.261Z,32.10
2019-05-17T13:58:02.858Z,32.50
2019-05-17T14:00:46.335Z,32.80
2019-05-17T14:03:20.392Z,32.70
2019-05-17T14:05:53.314Z,33.10
2019-05-17T14:08:26.727Z,33.40
2019-05-17T14:10:59.631Z,33.30
2019-05-17T14:13:31.618Z,33.40
2019-05-17T14:16:04.036Z,33.30
2019-05-17T14:18:37.090Z,33.10
2019-05-17T14:21:09.494Z,33.30
2019-05-17T14:23:41.907Z,33.30
2019-05-17T14:26:14.333Z,33.40
2019-05-17T14:28:46.767Z,33.40
2019-05-17T14:31:19.670Z,33.30
2019-05-17T14:33:52.206Z,33.30
2019-05-17T14:36:25.473Z,33.00
2019-05-17T14:38:59.204Z,32.90
2019-05-17T14:41:31.697Z,32.90
2019-05-17T14:44:05.049Z,33.00
2019-05-17T14:46:37.449Z,33.10
2019-05-17T14:49:10.255Z,32.70
2019-05-17T14:51:43.185Z,32.60
2019-05-17T14:54:16.182Z,32.80
2019-05-17T14:56:48.155Z,33.10
2019-05-17T14:59:21.062Z,33.70
2019-05-17T15:01:53.537Z,33.90
2019-05-17T15:04:26.648Z,33.90
2019-05-17T15:06:59.956Z,34.10
2019-05-17T15:09:32.926Z,34.20
2019-05-17T15:12:05.464Z,34.20
2019-05-17T15:14:37.384Z,34.60
2019-05-17T15:17:10.217Z,34.80
2019-05-17T15:19:42.713Z,34.70
2019-05-17T15:22:14.670Z,34.90
2019-05-17T15:24:47.285Z,35.00
2019-05-17T15:27:20.209Z,35.00
2019-05-17T15:29:52.641Z,35.20
2019-05-17T15:32:24.634Z,35.00
2019-05-17T15:34:57.478Z,34.90
2019-05-17T15:37:30.801Z,35.00
2019-05-17T15:40:03.485Z,35.00
2019-05-17T15:42:44.107Z,35.10
2019-05-17T15:45:12.033Z,35.10
2019-05-17T15:47:45.350Z,34.90
2019-05-17T15:50:18.412Z,35.00
2019-05-17T15:52:52.187Z,35.00
2019-05-17T15:55:25.465Z,35.10
2019-05-17T15:57:58.287Z,35.00
2019-05-17T16:00:31.221Z,34.70
2019-05-17T16:03:04.961Z,34.50
2019-05-17T16:05:39.135Z,34.00
2019-05-17T16:08:12.376Z,33.60
2019-05-17T16:10:46.660Z,33.60
2019-05-17T16:13:20.958Z,33.40
2019-05-17T16:15:54.310Z,33.30
2019-05-17T16:18:28.465Z,33.00
2019-05-17T16:21:02.097Z,32.60
2019-05-17T16:23:36.322Z,32.30
2019-05-17T16:26:10.531Z,31.70
2019-05-17T16:28:43.830Z,31.50
2019-05-17T16:31:18.038Z,31.30
2019-05-17T16:33:52.378Z,31.20
2019-05-17T16:36:25.856Z,30.60
2019-05-17T16:38:59.170Z,30.20
2019-05-17T16:41:32.931Z,30.50
2019-05-17T16:44:08.598Z,30.00
2019-05-17T16:46:41.556Z,29.70
2019-05-17T16:49:14.840Z,29.40
2019-05-17T16:51:48.199Z,29.40
2019-05-17T16:54:21.954Z,29.30
2019-05-17T16:56:54.416Z,29.40
2019-05-17T16:59:28.838Z,29.30
2019-05-17T17:02:02.990Z,29.40
2019-05-17T17:04:35.948Z,29.50
2019-05-17T17:07:09.670Z,29.50
2019-05-17T17:09:43.494Z,29.50
2019-05-17T17:12:16.308Z,29.60
2019-05-17T17:14:50.191Z,29.60
2019-05-17T17:17:23.430Z,29.40
2019-05-17T17:19:57.213Z,29.20
2019-05-17T17:22:31.397Z,29.20
2019-05-17T17:25:04.720Z,29.10
2019-05-17T17:27:38.446Z,29.30
2019-05-17T17:30:11.857Z,29.50
2019-05-17T17:32:45.635Z,29.60
2019-05-17T17:35:19.100Z,29.50
2019-05-17T17:37:52.397Z,29.10
2019-05-17T17:40:27.561Z,29.10
2019-05-17T17:43:01.851Z,29.00
2019-05-17T17:45:35.604Z,29.00
2019-05-17T17:48:10.018Z,28.60
2019-05-17T17:50:43.581Z,28.40
2019-05-17T17:53:18.431Z,28.40
2019-05-17T17:55:52.830Z,28.60
2019-05-17T17:58:26.174Z,28.70
2019-05-17T18:01:00.008Z,28.50
2019-05-17T18:03:33.439Z,28.50
2019-05-17T18:06:06.388Z,28.50
2019-05-17T18:08:39.774Z,28.60
2019-05-17T18:11:13.597Z,28.60
2019-05-17T18:13:48.052Z,28.60
2019-05-17T18:16:22.008Z,28.60
2019-05-17T18:18:56.858Z,28.60
2019-05-17T18:21:31.025Z,28.60
2019-05-17T18:24:08.023Z,28.40
2019-05-17T18:26:41.406Z,28.30
2019-05-17T18:29:14.773Z,28.00
2019-05-17T18:31:48.549Z,27.60
2019-05-17T18:34:22.360Z,27.20
2019-05-17T18:36:56.254Z,26.90
2019-05-17T18:39:29.586Z,26.70
2019-05-17T18:42:03.931Z,26.60
2019-05-17T18:44:37.636Z,26.60
2019-05-17T18:47:11.722Z,26.70
2019-05-17T18:49:45.516Z,27.00
2019-05-17T18:52:19.205Z,26.80
2019-05-17T18:54:52.673Z,26.90
2019-05-17T18:57:25.283Z,27.00
2019-05-17T18:59:58.607Z,27.10
2019-05-17T19:02:32.036Z,27.10
2019-05-17T19:05:05.029Z,27.20
2019-05-17T19:07:38.549Z,27.10
2019-05-17T19:10:11.827Z,27.20
2019-05-17T19:12:59.409Z,27.00
2019-05-17T19:15:32.661Z,26.80
2019-05-17T19:18:10.933Z,27.00
2019-05-17T19:20:45.866Z,27.00
2019-05-17T19:23:18.396Z,26.90
2019-05-17T19:25:50.446Z,26.90
2019-05-17T19:28:22.855Z,26.70
2019-05-17T19:30:57.113Z,26.90
2019-05-17T19:33:29.880Z,27.00
2019-05-17T19:36:03.345Z,27.10
2019-05-17T19:38:35.831Z,26.90
2019-05-17T19:41:08.702Z,26.50
2019-05-17T19:43:41.800Z,26.50
2019-05-17T19:46:13.924Z,26.70
2019-05-17T19:48:46.793Z,27.00
2019-05-17T19:51:19.649Z,26.50
2019-05-17T19:53:52.869Z,25.80
2019-05-17T19:56:25.969Z,25.80
2019-05-17T19:59:00.143Z,25.30
2019-05-17T20:01:33.902Z,25.10
2019-05-17T20:04:07.164Z,24.80
2019-05-17T20:06:42.271Z,24.50
2019-05-17T20:09:15.078Z,24.60
2019-05-17T20:11:50.497Z,25.20
2019-05-17T20:14:22.694Z,25.30
2019-05-17T20:16:55.286Z,25.10
2019-05-17T20:19:27.360Z,25.30
2019-05-17T20:22:00.827Z,25.60
2019-05-17T20:24:34.292Z,25.70
2019-05-17T20:27:08.141Z,25.50
2019-05-17T20:29:41.560Z,25.30
2019-05-17T20:32:15.224Z,25.40
2019-05-17T20:34:49.323Z,25.20
2019-05-17T20:37:23.147Z,25.30
2019-05-17T20:39:57.366Z,25.30
2019-05-17T20:42:31.167Z,25.50
2019-05-17T20:45:04.167Z,25.70
2019-05-17T20:47:37.488Z,25.70
2019-05-17T20:50:11.022Z,25.80
2019-05-17T20:52:44.349Z,25.80
2019-05-17T20:55:18.035Z,25.80
2019-05-17T20:57:51.881Z,25.70
2019-05-17T21:00:25.444Z,25.50
2019-05-17T21:02:59.147Z,25.40
2019-05-17T21:05:32.931Z,25.30
2019-05-17T21:08:06.806Z,25.40
2019-05-17T21:10:40.541Z,25.50
2019-05-17T21:13:14.265Z,25.30
2019-05-17T21:15:48.331Z,25.50
2019-05-17T21:18:21.424Z,25.40
2019-05-17T21:20:55.128Z,25.60
2019-05-17T21:23:28.441Z,25.40
2019-05-17T21:26:01.788Z,25.20
2019-05-17T21:28:35.466Z,25.20
2019-05-17T21:31:09.320Z,25.10
2019-05-17T21:33:43.289Z,25.20
2019-05-17T21:36:16.595Z,25.20
2019-05-17T21:38:49.814Z,25.30
2019-05-17T21:41:23.597Z,25.10
2019-05-17T21:43:57.230Z,25.00
2019-05-17T21:46:31.018Z,25.10
2019-05-17T21:49:04.316Z,25.20
2019-05-17T21:51:38.015Z,25.10
2019-05-17T21:54:10.717Z,25.10
2019-05-17T21:56:43.936Z,25.00
2019-05-17T21:59:18.198Z,25.00
2019-05-17T22:01:52.070Z,25.00
2019-05-17T22:04:26.944Z,24.40
2019-05-17T22:07:00.479Z,24.20
2019-05-17T22:09:33.757Z,24.30
2019-05-17T22:12:10.157Z,24.20
2019-05-17T22:14:43.394Z,24.00
2019-05-17T22:17:16.668Z,24.10
2019-05-17T22:19:49.834Z,24.20
2019-05-17T22:22:23.194Z,24.30
2019-05-17T22:24:56.514Z,24.10
2019-05-17T22:27:30.290Z,23.90
2019-05-17T22:30:03.852Z,24.10
2019-05-17T22:32:36.293Z,24.20
2019-05-17T22:35:09.082Z,24.20
2019-05-17T22:37:42.418Z,24.10
2019-05-17T22:40:15.719Z,24.00
2019-05-17T22:42:48.977Z,23.90
2019-05-17T22:45:22.210Z,23.60
2019-05-17T22:47:55.858Z,23.50
2019-05-17T22:50:29.545Z,23.10
2019-05-17T22:53:03.101Z,22.40
2019-05-17T22:55:36.342Z,22.40
2019-05-17T22:58:10.142Z,22.70
2019-05-17T23:00:43.812Z,22.30
2019-05-17T23:03:16.563Z,22.40
2019-05-17T23:05:50.741Z,22.80
2019-05-17T23:08:23.825Z,22.50
2019-05-17T23:10:56.971Z,22.50
2019-05-17T23:13:31.004Z,22.90
2019-05-17T23:16:09.209Z,22.70
2019-05-17T23:18:46.114Z,22.20
2019-05-17T23:21:19.516Z,22.00
2019-05-17T23:23:53.300Z,21.90
2019-05-17T23:26:26.595Z,21.70
2019-05-17T23:29:00.287Z,21.90
2019-05-17T23:31:33.348Z,22.60
2019-05-17T23:34:07.293Z,22.80
2019-05-17T23:36:40.440Z,22.50
2019-05-17T23:39:14.676Z,22.60
2019-05-17T23:41:47.097Z,22.50
2019-05-17T23:44:21.065Z,22.50
2019-05-17T23:47:06.155Z,22.60
2019-05-17T23:49:28.926Z,23.00
2019-05-17T23:52:02.609Z,23.40
2019-05-17T23:54:35.778Z,23.40
2019-05-17T23:57:08.645Z,23.30
2019-05-17T23:59:42.207Z,23.00
